Terminal Aerodrome Forecast
Issued by NWS Pittsburgh, PA

Current Version | Previous Version | Graphics & Text | Print | Product List | Glossary On
Versions: 1 2 3 4 5 6 7 8 9 10 11 12 13 14 15 16 17 18 19 20 21 22 23 24 25 26 27 28 29 30 31
000
FTUS41 KPBZ 031900 AAA
TAFPIT
TAF AMD
KPIT 031911Z 0319/0424 16008KT 5SM -RA OVC025
     FM040000 20005KT 2SM -RA BR OVC007 WS020/23045KT
     FM041300 VRB05KT 4SM -SN OVC010
     FM042000 32008KT 2SM -SN BR OVC007=

USA.gov is the U.S. government's official web portal to all federal, state and local government web resources and services.